sensor_id;sensor_type;location;lat;lon;timestamp;P1;durP1;ratioP1;P2;durP2;ratioP2
37645;SDS011;23489;49.600;6.138;2023-04-24T00:00:40;2.13;;;1.90;;
37645;SDS011;23489;49.600;6.138;2023-04-24T00:03:06;2.80;;;1.90;;
37645;SDS011;23489;49.600;6.138;2023-04-24T00:05:32;2.67;;;2.10;;
37645;SDS011;23489;49.600;6.138;2023-04-24T00:07:58;2.50;;;2.20;;
37645;SDS011;23489;49.600;6.138;2023-04-24T00:10:25;2.60;;;2.05;;
37645;SDS011;23489;49.600;6.138;2023-04-24T00:12:50;3.77;;;2.27;;
37645;SDS011;23489;49.600;6.138;2023-04-24T00:15:16;2.50;;;2.30;;
37645;SDS011;23489;49.600;6.138;2023-04-24T00:17:42;3.73;;;2.50;;
37645;SDS011;23489;49.600;6.138;2023-04-24T00:20:07;2.80;;;2.60;;
37645;SDS011;23489;49.600;6.138;2023-04-24T00:22:35;3.00;;;2.50;;
37645;SDS011;23489;49.600;6.138;2023-04-24T00:25:00;3.53;;;2.73;;
37645;SDS011;23489;49.600;6.138;2023-04-24T00:27:26;3.10;;;2.53;;
37645;SDS011;23489;49.600;6.138;2023-04-24T00:29:52;3.00;;;2.70;;
37645;SDS011;23489;49.600;6.138;2023-04-24T00:32:18;2.90;;;2.20;;
37645;SDS011;23489;49.600;6.138;2023-04-24T00:34:43;3.20;;;2.63;;
37645;SDS011;23489;49.600;6.138;2023-04-24T00:37:09;3.00;;;2.70;;
37645;SDS011;23489;49.600;6.138;2023-04-24T00:39:36;2.80;;;2.50;;
37645;SDS011;23489;49.600;6.138;2023-04-24T00:42:03;3.97;;;2.75;;
37645;SDS011;23489;49.600;6.138;2023-04-24T02:12:13;7.38;;;5.43;;
37645;SDS011;23489;49.600;6.138;2023-04-24T02:14:39;9.23;;;6.45;;
37645;SDS011;23489;49.600;6.138;2023-04-24T02:17:05;10.50;;;6.95;;
37645;SDS011;23489;49.600;6.138;2023-04-24T02:19:31;10.80;;;6.65;;
37645;SDS011;23489;49.600;6.138;2023-04-24T02:21:57;11.23;;;7.47;;
37645;SDS011;23489;49.600;6.138;2023-04-24T02:24:22;10.63;;;7.47;;
37645;SDS011;23489;49.600;6.138;2023-04-24T02:26:48;11.02;;;7.65;;
37645;SDS011;23489;49.600;6.138;2023-04-24T02:29:14;12.52;;;7.70;;
37645;SDS011;23489;49.600;6.138;2023-04-24T02:31:40;11.45;;;7.57;;
37645;SDS011;23489;49.600;6.138;2023-04-24T02:34:05;10.70;;;7.65;;
37645;SDS011;23489;49.600;6.138;2023-04-24T02:36:31;12.35;;;7.97;;
37645;SDS011;23489;49.600;6.138;2023-04-24T02:38:57;10.35;;;7.30;;
37645;SDS011;23489;49.600;6.138;2023-04-24T02:41:22;11.45;;;7.82;;
37645;SDS011;23489;49.600;6.138;2023-04-24T02:43:48;10.82;;;7.45;;
37645;SDS011;23489;49.600;6.138;2023-04-24T02:46:13;11.63;;;9.57;;
37645;SDS011;23489;49.600;6.138;2023-04-24T02:48:39;10.85;;;9.00;;
37645;SDS011;23489;49.600;6.138;2023-04-24T02:51:05;10.50;;;7.70;;
37645;SDS011;23489;49.600;6.138;2023-04-24T02:53:31;10.13;;;7.53;;
37645;SDS011;23489;49.600;6.138;2023-04-24T02:55:57;10.95;;;7.30;;
37645;SDS011;23489;49.600;6.138;2023-04-24T02:58:23;12.05;;;7.20;;
37645;SDS011;23489;49.600;6.138;2023-04-24T03:00:52;10.57;;;9.27;;
37645;SDS011;23489;49.600;6.138;2023-04-24T03:03:20;9.68;;;7.75;;
37645;SDS011;23489;49.600;6.138;2023-04-24T03:05:46;11.50;;;7.88;;
37645;SDS011;23489;49.600;6.138;2023-04-24T03:08:12;12.55;;;7.78;;
37645;SDS011;23489;49.600;6.138;2023-04-24T03:10:37;11.70;;;8.38;;
37645;SDS011;23489;49.600;6.138;2023-04-24T03:13:03;12.63;;;8.55;;
37645;SDS011;23489;49.600;6.138;2023-04-24T03:17:54;12.00;;;8.27;;
37645;SDS011;23489;49.600;6.138;2023-04-24T03:20:20;11.13;;;7.88;;
37645;SDS011;23489;49.600;6.138;2023-04-24T03:22:46;10.88;;;8.43;;
37645;SDS011;23489;49.600;6.138;2023-04-24T03:25:12;9.93;;;8.13;;
37645;SDS011;23489;49.600;6.138;2023-04-24T03:27:38;13.20;;;8.23;;
37645;SDS011;23489;49.600;6.138;2023-04-24T03:30:26;11.15;;;8.23;;
37645;SDS011;23489;49.600;6.138;2023-04-24T03:32:56;12.05;;;7.70;;
37645;SDS011;23489;49.600;6.138;2023-04-24T03:35:26;11.70;;;7.68;;
37645;SDS011;23489;49.600;6.138;2023-04-24T03:37:52;12.93;;;8.15;;
37645;SDS011;23489;49.600;6.138;2023-04-24T03:40:36;10.50;;;7.95;;
37645;SDS011;23489;49.600;6.138;2023-04-24T03:43:09;10.73;;;7.50;;
37645;SDS011;23489;49.600;6.138;2023-04-24T03:45:36;13.13;;;7.93;;
37645;SDS011;23489;49.600;6.138;2023-04-24T03:48:02;13.23;;;7.90;;
37645;SDS011;23489;49.600;6.138;2023-04-24T03:50:28;10.30;;;7.72;;
37645;SDS011;23489;49.600;6.138;2023-04-24T03:52:54;12.00;;;7.68;;
37645;SDS011;23489;49.600;6.138;2023-04-24T03:55:32;11.38;;;7.63;;
37645;SDS011;23489;49.600;6.138;2023-04-24T03:57:58;9.65;;;7.22;;
37645;SDS011;23489;49.600;6.138;2023-04-24T04:00:24;11.35;;;7.15;;
37645;SDS011;23489;49.600;6.138;2023-04-24T04:03:03;9.93;;;7.05;;
37645;SDS011;23489;49.600;6.138;2023-04-24T04:05:29;8.98;;;6.68;;
37645;SDS011;23489;49.600;6.138;2023-04-24T04:07:55;8.90;;;6.55;;
37645;SDS011;23489;49.600;6.138;2023-04-24T04:10:21;9.40;;;6.30;;
37645;SDS011;23489;49.600;6.138;2023-04-24T04:27:29;9.20;;;6.38;;
37645;SDS011;23489;49.600;6.138;2023-04-24T04:30:02;8.75;;;5.15;;
37645;SDS011;23489;49.600;6.138;2023-04-24T04:32:32;7.57;;;5.22;;
37645;SDS011;23489;49.600;6.138;2023-04-24T04:35:02;7.82;;;5.18;;
37645;SDS011;23489;49.600;6.138;2023-04-24T04:37:31;7.00;;;5.43;;
37645;SDS011;23489;49.600;6.138;2023-04-24T04:40:18;9.68;;;4.93;;
37645;SDS011;23489;49.600;6.138;2023-04-24T04:42:56;6.07;;;4.38;;
37645;SDS011;23489;49.600;6.138;2023-04-24T04:45:23;6.30;;;4.63;;
37645;SDS011;23489;49.600;6.138;2023-04-24T04:48:09;5.85;;;4.80;;
37645;SDS011;23489;49.600;6.138;2023-04-24T04:50:37;7.53;;;5.07;;
37645;SDS011;23489;49.600;6.138;2023-04-24T04:53:06;6.47;;;5.05;;
37645;SDS011;23489;49.600;6.138;2023-04-24T04:55:36;9.00;;;5.80;;
37645;SDS011;23489;49.600;6.138;2023-04-24T04:58:10;6.80;;;5.53;;
37645;SDS011;23489;49.600;6.138;2023-04-24T05:00:36;9.38;;;5.80;;
37645;SDS011;23489;49.600;6.138;2023-04-24T05:03:10;6.57;;;5.50;;
37645;SDS011;23489;49.600;6.138;2023-04-24T05:05:37;7.10;;;5.45;;
37645;SDS011;23489;49.600;6.138;2023-04-24T05:08:07;6.25;;;5.53;;
37645;SDS011;23489;49.600;6.138;2023-04-24T05:10:34;5.22;;;4.65;;
37645;SDS011;23489;49.600;6.138;2023-04-24T05:13:02;5.15;;;3.92;;
37645;SDS011;23489;49.600;6.138;2023-04-24T05:15:29;7.10;;;4.55;;
37645;SDS011;23489;49.600;6.138;2023-04-24T05:17:56;6.50;;;5.40;;
37645;SDS011;23489;49.600;6.138;2023-04-24T05:20:23;6.10;;;5.25;;
37645;SDS011;23489;49.600;6.138;2023-04-24T05:22:49;6.60;;;5.88;;
37645;SDS011;23489;49.600;6.138;2023-04-24T05:25:16;6.78;;;5.28;;
37645;SDS011;23489;49.600;6.138;2023-04-24T05:27:55;5.75;;;4.82;;
37645;SDS011;23489;49.600;6.138;2023-04-24T05:30:22;7.68;;;4.72;;
37645;SDS011;23489;49.600;6.138;2023-04-24T05:32:48;7.60;;;5.03;;
37645;SDS011;23489;49.600;6.138;2023-04-24T05:35:14;7.18;;;5.07;;
37645;SDS011;23489;49.600;6.138;2023-04-24T05:37:40;7.90;;;5.35;;
37645;SDS011;23489;49.600;6.138;2023-04-24T05:40:06;8.50;;;5.55;;
37645;SDS011;23489;49.600;6.138;2023-04-24T05:42:32;6.57;;;5.82;;
37645;SDS011;23489;49.600;6.138;2023-04-24T05:44:58;6.55;;;4.95;;
37645;SDS011;23489;49.600;6.138;2023-04-24T05:47:25;8.45;;;5.32;;
37645;SDS011;23489;49.600;6.138;2023-04-24T05:49:52;6.40;;;4.65;;
37645;SDS011;23489;49.600;6.138;2023-04-24T05:52:18;6.57;;;5.47;;
37645;SDS011;23489;49.600;6.138;2023-04-24T05:54:44;6.13;;;5.18;;
37645;SDS011;23489;49.600;6.138;2023-04-24T05:57:12;8.57;;;5.57;;
37645;SDS011;23489;49.600;6.138;2023-04-24T05:59:51;10.50;;;5.97;;
37645;SDS011;23489;49.600;6.138;2023-04-24T06:02:18;11.07;;;5.85;;
37645;SDS011;23489;49.600;6.138;2023-04-24T06:04:44;17.35;;;7.53;;
37645;SDS011;23489;49.600;6.138;2023-04-24T06:07:13;9.48;;;6.32;;
37645;SDS011;23489;49.600;6.138;2023-04-24T06:09:41;10.70;;;6.13;;
37645;SDS011;23489;49.600;6.138;2023-04-24T06:12:07;9.38;;;5.57;;
37645;SDS011;23489;49.600;6.138;2023-04-24T06:14:47;15.10;;;7.20;;
37645;SDS011;23489;49.600;6.138;2023-04-24T06:17:33;11.05;;;7.35;;
37645;SDS011;23489;49.600;6.138;2023-04-24T06:19:59;9.38;;;6.72;;
37645;SDS011;23489;49.600;6.138;2023-04-24T06:22:25;10.85;;;7.03;;
37645;SDS011;23489;49.600;6.138;2023-04-24T06:24:51;8.48;;;6.47;;
37645;SDS011;23489;49.600;6.138;2023-04-24T06:27:16;10.18;;;6.65;;
37645;SDS011;23489;49.600;6.138;2023-04-24T06:29:42;10.55;;;6.57;;
37645;SDS011;23489;49.600;6.138;2023-04-24T06:32:07;10.85;;;7.07;;
37645;SDS011;23489;49.600;6.138;2023-04-24T06:34:33;10.43;;;6.90;;
37645;SDS011;23489;49.600;6.138;2023-04-24T06:37:00;12.57;;;7.43;;
37645;SDS011;23489;49.600;6.138;2023-04-24T06:39:27;11.27;;;7.13;;
37645;SDS011;23489;49.600;6.138;2023-04-24T06:41:52;11.45;;;7.22;;
37645;SDS011;23489;49.600;6.138;2023-04-24T06:44:19;9.20;;;6.63;;
37645;SDS011;23489;49.600;6.138;2023-04-24T06:46:44;10.27;;;7.28;;
37645;SDS011;23489;49.600;6.138;2023-04-24T06:49:10;9.25;;;6.72;;
37645;SDS011;23489;49.600;6.138;2023-04-24T06:51:36;9.00;;;6.82;;
37645;SDS011;23489;49.600;6.138;2023-04-24T06:54:01;12.73;;;6.90;;
37645;SDS011;23489;49.600;6.138;2023-04-24T06:56:27;9.20;;;6.85;;
37645;SDS011;23489;49.600;6.138;2023-04-24T06:58:54;11.80;;;6.88;;
37645;SDS011;23489;49.600;6.138;2023-04-24T07:01:19;10.95;;;7.03;;
37645;SDS011;23489;49.600;6.138;2023-04-24T07:03:45;20.00;;;10.75;;
37645;SDS011;23489;49.600;6.138;2023-04-24T07:06:11;13.38;;;7.40;;
37645;SDS011;23489;49.600;6.138;2023-04-24T07:08:37;10.38;;;6.97;;
37645;SDS011;23489;49.600;6.138;2023-04-24T07:11:03;11.65;;;6.85;;
37645;SDS011;23489;49.600;6.138;2023-04-24T07:13:29;9.32;;;6.88;;
37645;SDS011;23489;49.600;6.138;2023-04-24T07:15:55;19.27;;;10.52;;
37645;SDS011;23489;49.600;6.138;2023-04-24T07:18:21;9.70;;;6.93;;
37645;SDS011;23489;49.600;6.138;2023-04-24T07:20:47;11.05;;;7.32;;
37645;SDS011;23489;49.600;6.138;2023-04-24T07:23:17;9.93;;;6.93;;
37645;SDS011;23489;49.600;6.138;2023-04-24T07:30:34;11.48;;;7.35;;
37645;SDS011;23489;49.600;6.138;2023-04-24T07:33:00;12.25;;;6.95;;
37645;SDS011;23489;49.600;6.138;2023-04-24T07:35:26;9.80;;;6.70;;
37645;SDS011;23489;49.600;6.138;2023-04-24T07:37:55;7.57;;;5.68;;
37645;SDS011;23489;49.600;6.138;2023-04-24T07:40:21;13.55;;;7.43;;
37645;SDS011;23489;49.600;6.138;2023-04-24T07:42:47;10.20;;;6.28;;
37645;SDS011;23489;49.600;6.138;2023-04-24T07:45:15;13.60;;;8.10;;
37645;SDS011;23489;49.600;6.138;2023-04-24T07:47:42;9.68;;;7.00;;
37645;SDS011;23489;49.600;6.138;2023-04-24T07:50:09;10.75;;;7.80;;
37645;SDS011;23489;49.600;6.138;2023-04-24T07:52:35;8.95;;;7.00;;
37645;SDS011;23489;49.600;6.138;2023-04-24T07:55:01;21.25;;;8.50;;
37645;SDS011;23489;49.600;6.138;2023-04-24T07:57:27;9.38;;;7.10;;
37645;SDS011;23489;49.600;6.138;2023-04-24T07:59:53;10.50;;;7.43;;
37645;SDS011;23489;49.600;6.138;2023-04-24T08:02:19;10.70;;;6.85;;
37645;SDS011;23489;49.600;6.138;2023-04-24T08:04:44;11.48;;;7.97;;
37645;SDS011;23489;49.600;6.138;2023-04-24T08:07:10;15.65;;;8.70;;
37645;SDS011;23489;49.600;6.138;2023-04-24T08:09:38;12.68;;;7.60;;
37645;SDS011;23489;49.600;6.138;2023-04-24T08:12:03;12.20;;;7.65;;
37645;SDS011;23489;49.600;6.138;2023-04-24T08:14:29;10.02;;;6.80;;
37645;SDS011;23489;49.600;6.138;2023-04-24T08:16:55;12.27;;;7.20;;
37645;SDS011;23489;49.600;6.138;2023-04-24T08:19:21;12.45;;;7.97;;
37645;SDS011;23489;49.600;6.138;2023-04-24T08:21:47;15.88;;;9.60;;
37645;SDS011;23489;49.600;6.138;2023-04-24T08:24:12;12.35;;;8.15;;
37645;SDS011;23489;49.600;6.138;2023-04-24T08:26:38;12.38;;;9.05;;
37645;SDS011;23489;49.600;6.138;2023-04-24T08:29:04;11.35;;;8.05;;
37645;SDS011;23489;49.600;6.138;2023-04-24T08:31:31;18.25;;;9.60;;
37645;SDS011;23489;49.600;6.138;2023-04-24T08:33:57;11.30;;;7.80;;
37645;SDS011;23489;49.600;6.138;2023-04-24T08:36:24;11.27;;;7.97;;
37645;SDS011;23489;49.600;6.138;2023-04-24T08:38:51;11.88;;;7.85;;
37645;SDS011;23489;49.600;6.138;2023-04-24T08:41:17;13.93;;;8.23;;
37645;SDS011;23489;49.600;6.138;2023-04-24T08:43:45;11.43;;;8.05;;
37645;SDS011;23489;49.600;6.138;2023-04-24T08:46:11;9.27;;;6.78;;
37645;SDS011;23489;49.600;6.138;2023-04-24T08:48:38;10.07;;;6.57;;
37645;SDS011;23489;49.600;6.138;2023-04-24T08:58:26;7.45;;;5.60;;
37645;SDS011;23489;49.600;6.138;2023-04-24T09:08:14;8.77;;;6.20;;
37645;SDS011;23489;49.600;6.138;2023-04-24T09:10:43;9.65;;;6.72;;
37645;SDS011;23489;49.600;6.138;2023-04-24T09:13:09;7.68;;;5.70;;
37645;SDS011;23489;49.600;6.138;2023-04-24T09:15:36;7.97;;;5.97;;
37645;SDS011;23489;49.600;6.138;2023-04-24T09:18:02;6.55;;;5.40;;
37645;SDS011;23489;49.600;6.138;2023-04-24T09:20:28;9.13;;;5.70;;
37645;SDS011;23489;49.600;6.138;2023-04-24T09:22:54;9.93;;;5.97;;
37645;SDS011;23489;49.600;6.138;2023-04-24T09:25:21;9.57;;;6.80;;
37645;SDS011;23489;49.600;6.138;2023-04-24T09:27:47;7.35;;;5.88;;
37645;SDS011;23489;49.600;6.138;2023-04-24T09:37:34;9.30;;;5.63;;
37645;SDS011;23489;49.600;6.138;2023-04-24T09:40:10;9.30;;;5.50;;
37645;SDS011;23489;49.600;6.138;2023-04-24T09:42:38;9.95;;;6.05;;
37645;SDS011;23489;49.600;6.138;2023-04-24T09:45:04;8.82;;;5.43;;
37645;SDS011;23489;49.600;6.138;2023-04-24T09:47:38;8.73;;;5.68;;
37645;SDS011;23489;49.600;6.138;2023-04-24T09:52:41;10.45;;;6.50;;
37645;SDS011;23489;49.600;6.138;2023-04-24T09:55:45;9.52;;;5.70;;
37645;SDS011;23489;49.600;6.138;2023-04-24T09:58:15;9.25;;;6.60;;
37645;SDS011;23489;49.600;6.138;2023-04-24T10:00:41;10.75;;;6.07;;
37645;SDS011;23489;49.600;6.138;2023-04-24T10:05:36;7.88;;;5.32;;
37645;SDS011;23489;49.600;6.138;2023-04-24T10:08:04;7.57;;;4.97;;
37645;SDS011;23489;49.600;6.138;2023-04-24T10:10:32;5.40;;;4.15;;
37645;SDS011;23489;49.600;6.138;2023-04-24T10:12:59;6.03;;;4.53;;
37645;SDS011;23489;49.600;6.138;2023-04-24T10:15:26;8.60;;;4.57;;
37645;SDS011;23489;49.600;6.138;2023-04-24T10:17:52;5.13;;;4.50;;
37645;SDS011;23489;49.600;6.138;2023-04-24T10:20:19;6.10;;;5.30;;
37645;SDS011;23489;49.600;6.138;2023-04-24T10:22:49;7.93;;;5.53;;
37645;SDS011;23489;49.600;6.138;2023-04-24T10:25:21;8.70;;;5.22;;
37645;SDS011;23489;49.600;6.138;2023-04-24T12:36:06;10.77;;;6.25;;
37645;SDS011;23489;49.600;6.138;2023-04-24T12:38:31;45.75;;;8.95;;
37645;SDS011;23489;49.600;6.138;2023-04-24T12:41:08;18.90;;;6.78;;
37645;SDS011;23489;49.600;6.138;2023-04-24T12:43:36;59.78;;;13.02;;
37645;SDS011;23489;49.600;6.138;2023-04-24T12:50:54;26.25;;;7.43;;
37645;SDS011;23489;49.600;6.138;2023-04-24T12:53:21;36.92;;;8.57;;
37645;SDS011;23489;49.600;6.138;2023-04-24T12:58:20;9.20;;;6.20;;
37645;SDS011;23489;49.600;6.138;2023-04-24T13:27:28;12.10;;;7.57;;
37645;SDS011;23489;49.600;6.138;2023-04-24T13:29:54;10.63;;;6.88;;
37645;SDS011;23489;49.600;6.138;2023-04-24T13:32:20;60.05;;;12.38;;
37645;SDS011;23489;49.600;6.138;2023-04-24T13:42:02;53.72;;;9.50;;
37645;SDS011;23489;49.600;6.138;2023-04-24T14:01:32;7.53;;;5.32;;
37645;SDS011;23489;49.600;6.138;2023-04-24T14:03:57;7.97;;;4.80;;
37645;SDS011;23489;49.600;6.138;2023-04-24T14:06:23;11.05;;;5.32;;
37645;SDS011;23489;49.600;6.138;2023-04-24T14:11:15;6.85;;;4.75;;
37645;SDS011;23489;49.600;6.138;2023-04-24T14:13:42;15.27;;;4.80;;
37645;SDS011;23489;49.600;6.138;2023-04-24T14:16:08;13.02;;;5.35;;
37645;SDS011;23489;49.600;6.138;2023-04-24T14:18:34;10.02;;;5.82;;
37645;SDS011;23489;49.600;6.138;2023-04-24T14:21:01;7.03;;;5.10;;
37645;SDS011;23489;49.600;6.138;2023-04-24T16:44:21;6.40;;;3.70;;
37645;SDS011;23489;49.600;6.138;2023-04-24T16:56:30;7.30;;;4.50;;
37645;SDS011;23489;49.600;6.138;2023-04-24T20:27:57;16.42;;;11.90;;
37645;SDS011;23489;49.600;6.138;2023-04-24T20:30:23;16.17;;;12.40;;
37645;SDS011;23489;49.600;6.138;2023-04-24T20:32:49;17.17;;;11.10;;
37645;SDS011;23489;49.600;6.138;2023-04-24T20:35:15;14.50;;;10.75;;
37645;SDS011;23489;49.600;6.138;2023-04-24T20:37:40;15.38;;;10.15;;
37645;SDS011;23489;49.600;6.138;2023-04-24T20:40:06;14.25;;;10.05;;
37645;SDS011;23489;49.600;6.138;2023-04-24T20:42:33;14.93;;;10.02;;
37645;SDS011;23489;49.600;6.138;2023-04-24T20:44:59;14.20;;;10.05;;
37645;SDS011;23489;49.600;6.138;2023-04-24T20:47:25;13.35;;;9.50;;
37645;SDS011;23489;49.600;6.138;2023-04-24T20:49:51;16.30;;;10.10;;
37645;SDS011;23489;49.600;6.138;2023-04-24T20:52:17;14.30;;;10.38;;
37645;SDS011;23489;49.600;6.138;2023-04-24T20:54:43;14.20;;;9.50;;
37645;SDS011;23489;49.600;6.138;2023-04-24T20:57:08;13.30;;;9.75;;
37645;SDS011;23489;49.600;6.138;2023-04-24T20:59:34;15.77;;;9.90;;
37645;SDS011;23489;49.600;6.138;2023-04-24T21:02:00;14.48;;;10.25;;
37645;SDS011;23489;49.600;6.138;2023-04-24T21:04:25;15.13;;;10.32;;
37645;SDS011;23489;49.600;6.138;2023-04-24T21:06:51;16.73;;;10.98;;
37645;SDS011;23489;49.600;6.138;2023-04-24T21:09:17;14.48;;;10.00;;
37645;SDS011;23489;49.600;6.138;2023-04-24T21:11:42;14.55;;;10.15;;
37645;SDS011;23489;49.600;6.138;2023-04-24T21:19:00;17.83;;;9.45;;
37645;SDS011;23489;49.600;6.138;2023-04-24T21:21:26;15.05;;;10.05;;
37645;SDS011;23489;49.600;6.138;2023-04-24T21:23:51;16.05;;;10.27;;
37645;SDS011;23489;49.600;6.138;2023-04-24T21:43:16;14.52;;;9.73;;
37645;SDS011;23489;49.600;6.138;2023-04-24T21:45:42;13.50;;;9.85;;
37645;SDS011;23489;49.600;6.138;2023-04-24T21:48:08;13.52;;;9.95;;
37645;SDS011;23489;49.600;6.138;2023-04-24T21:50:34;13.43;;;10.00;;
37645;SDS011;23489;49.600;6.138;2023-04-24T21:52:59;13.80;;;10.35;;
37645;SDS011;23489;49.600;6.138;2023-04-24T21:55:25;16.75;;;10.40;;
37645;SDS011;23489;49.600;6.138;2023-04-24T21:57:51;12.63;;;9.63;;
37645;SDS011;23489;49.600;6.138;2023-04-24T22:00:16;15.75;;;10.00;;
37645;SDS011;23489;49.600;6.138;2023-04-24T22:02:42;15.80;;;10.57;;
37645;SDS011;23489;49.600;6.138;2023-04-24T22:05:08;15.70;;;10.05;;
37645;SDS011;23489;49.600;6.138;2023-04-24T22:10:05;14.73;;;9.60;;
37645;SDS011;23489;49.600;6.138;2023-04-24T22:12:32;13.82;;;9.38;;
37645;SDS011;23489;49.600;6.138;2023-04-24T22:14:57;12.93;;;9.90;;
37645;SDS011;23489;49.600;6.138;2023-04-24T22:17:24;14.07;;;9.80;;
37645;SDS011;23489;49.600;6.138;2023-04-24T22:19:49;15.18;;;9.85;;
37645;SDS011;23489;49.600;6.138;2023-04-24T22:22:15;14.57;;;9.18;;
37645;SDS011;23489;49.600;6.138;2023-04-24T22:24:40;14.90;;;9.38;;
37645;SDS011;23489;49.600;6.138;2023-04-24T22:29:32;16.15;;;11.63;;
37645;SDS011;23489;49.600;6.138;2023-04-24T22:31:58;15.93;;;11.98;;
37645;SDS011;23489;49.600;6.138;2023-04-24T22:34:23;16.08;;;12.10;;
37645;SDS011;23489;49.600;6.138;2023-04-24T22:36:49;14.27;;;10.43;;
37645;SDS011;23489;49.600;6.138;2023-04-24T22:39:15;14.85;;;9.68;;
37645;SDS011;23489;49.600;6.138;2023-04-24T22:41:41;14.18;;;9.23;;
37645;SDS011;23489;49.600;6.138;2023-04-24T22:44:07;12.27;;;9.15;;
37645;SDS011;23489;49.600;6.138;2023-04-24T22:46:34;16.60;;;12.07;;
37645;SDS011;23489;49.600;6.138;2023-04-24T22:48:59;16.97;;;12.90;;
37645;SDS011;23489;49.600;6.138;2023-04-24T22:51:26;16.48;;;12.57;;
37645;SDS011;23489;49.600;6.138;2023-04-24T22:53:51;16.85;;;13.20;;
37645;SDS011;23489;49.600;6.138;2023-04-24T22:56:18;13.77;;;10.55;;
37645;SDS011;23489;49.600;6.138;2023-04-24T22:58:44;15.02;;;10.40;;
37645;SDS011;23489;49.600;6.138;2023-04-24T23:01:10;15.88;;;9.85;;
37645;SDS011;23489;49.600;6.138;2023-04-24T23:03:36;16.17;;;11.27;;
37645;SDS011;23489;49.600;6.138;2023-04-24T23:06:02;17.75;;;11.10;;
37645;SDS011;23489;49.600;6.138;2023-04-24T23:08:28;16.27;;;10.63;;
37645;SDS011;23489;49.600;6.138;2023-04-24T23:23:03;15.95;;;12.43;;
37645;SDS011;23489;49.600;6.138;2023-04-24T23:25:29;17.30;;;10.73;;
37645;SDS011;23489;49.600;6.138;2023-04-24T23:27:56;15.15;;;10.15;;
37645;SDS011;23489;49.600;6.138;2023-04-24T23:30:22;13.00;;;9.45;;
37645;SDS011;23489;49.600;6.138;2023-04-24T23:32:48;14.50;;;10.43;;
37645;SDS011;23489;49.600;6.138;2023-04-24T23:35:13;13.35;;;9.18;;
37645;SDS011;23489;49.600;6.138;2023-04-24T23:37:39;12.13;;;8.57;;
37645;SDS011;23489;49.600;6.138;2023-04-24T23:40:06;13.95;;;9.88;;
37645;SDS011;23489;49.600;6.138;2023-04-24T23:42:34;14.93;;;9.80;;
37645;SDS011;23489;49.600;6.138;2023-04-24T23:45:00;12.38;;;10.00;;
37645;SDS011;23489;49.600;6.138;2023-04-24T23:47:26;15.32;;;9.73;;
37645;SDS011;23489;49.600;6.138;2023-04-24T23:49:51;14.23;;;9.98;;
37645;SDS011;23489;49.600;6.138;2023-04-24T23:52:17;15.13;;;10.45;;
37645;SDS011;23489;49.600;6.138;2023-04-24T23:54:43;12.30;;;9.10;;
37645;SDS011;23489;49.600;6.138;2023-04-24T23:57:09;12.55;;;9.45;;
37645;SDS011;23489;49.600;6.138;2023-04-24T23:59:34;13.05;;;9.60;;
